createdAt,value
2023-03-06T00:00:48.388Z,93.53
2023-03-06T00:01:48.563Z,93.74
2023-03-06T00:02:48.308Z,93.84
2023-03-06T00:03:48.401Z,93.53
2023-03-06T00:04:48.224Z,93.21
2023-03-06T00:05:48.313Z,93.32
2023-03-06T00:06:48.251Z,93.63
2023-03-06T00:07:48.268Z,93.84
2023-03-06T00:08:48.211Z,93.74
2023-03-06T00:09:48.502Z,93.43
2023-03-06T00:10:48.284Z,93.53
2023-03-06T00:11:51.150Z,93.32
2023-03-06T00:12:48.217Z,93.53
2023-03-06T00:13:48.145Z,93.63
2023-03-06T00:14:48.129Z,93.74
2023-03-06T00:15:48.153Z,93.84
2023-03-06T00:16:48.113Z,93.84
2023-03-06T00:17:48.130Z,93.63
2023-03-06T00:18:48.195Z,93.49
2023-03-06T00:19:48.172Z,93.38
2023-03-06T00:20:48.081Z,93.49
2023-03-06T00:21:48.062Z,93.07
2023-03-06T00:22:48.064Z,92.86
2023-03-06T00:23:48.114Z,92.76
2023-03-06T00:24:48.064Z,92.86
2023-03-06T00:25:48.030Z,92.65
2023-03-06T00:26:51.089Z,92.54
2023-03-06T00:27:48.053Z,92.65
2023-03-06T00:28:48.033Z,92.86
2023-03-06T00:29:48.036Z,92.65
2023-03-06T00:30:48.004Z,92.61
2023-03-06T00:31:48.068Z,92.82
2023-03-06T00:32:47.964Z,92.82
2023-03-06T00:33:47.968Z,92.61
2023-03-06T00:34:47.972Z,92.50
2023-03-06T00:35:47.969Z,92.50
2023-03-06T00:36:47.944Z,92.71
2023-03-06T00:37:47.930Z,93.02
2023-03-06T00:38:47.885Z,93.24
2023-03-06T00:39:47.902Z,93.02
2023-03-06T00:40:47.904Z,92.92
2023-03-06T00:41:50.879Z,93.02
2023-03-06T00:42:47.945Z,92.92
2023-03-06T00:43:47.844Z,92.82
2023-03-06T00:44:47.845Z,93.13
2023-03-06T00:45:47.906Z,93.02
2023-03-06T00:46:47.802Z,92.82
2023-03-06T00:47:47.816Z,92.71
2023-03-06T00:48:47.783Z,92.82
2023-03-06T00:49:47.781Z,93.34
2023-03-06T00:50:47.794Z,93.65
2023-03-06T00:51:47.792Z,93.65
2023-03-06T00:52:47.736Z,93.51
2023-03-06T00:53:47.845Z,93.65
2023-03-06T00:54:47.738Z,93.87
2023-03-06T00:55:47.732Z,93.82
2023-03-06T00:56:50.719Z,93.71
2023-03-06T00:57:47.732Z,93.51
2023-03-06T00:58:47.679Z,93.51
2023-03-06T00:59:47.696Z,93.40
2023-03-06T01:00:47.719Z,93.40
2023-03-06T01:01:47.713Z,93.61
2023-03-06T01:02:47.657Z,93.51
2023-03-06T01:03:47.650Z,93.30
2023-03-06T01:04:47.758Z,93.30
2023-03-06T01:05:47.621Z,93.61
2023-03-06T01:06:47.595Z,94.03
2023-03-06T01:07:47.693Z,94.34
2023-03-06T01:08:47.702Z,94.34
2023-03-06T01:09:47.601Z,94.34
2023-03-06T01:10:47.573Z,94.24
2023-03-06T01:11:50.596Z,94.13
2023-03-06T01:12:47.655Z,93.82
2023-03-06T01:13:47.555Z,93.40
2023-03-06T01:14:47.539Z,93.40
2023-03-06T01:15:47.509Z,93.30
2023-03-06T01:16:47.557Z,93.30
2023-03-06T01:17:47.492Z,93.30
2023-03-06T01:18:47.508Z,93.61
2023-03-06T01:19:47.522Z,94.03
2023-03-06T01:20:47.450Z,94.13
2023-03-06T01:21:47.482Z,93.99
2023-03-06T01:22:47.615Z,93.93
2023-03-06T01:23:47.470Z,94.03
2023-03-06T01:24:47.447Z,94.24
2023-03-06T01:25:47.410Z,94.24
2023-03-06T01:26:50.451Z,94.34
2023-03-06T01:27:47.398Z,94.34
2023-03-06T01:28:47.409Z,94.45
2023-03-06T01:29:47.370Z,94.45
2023-03-06T01:30:47.381Z,94.56
2023-03-06T01:31:47.620Z,94.56
2023-03-06T01:32:47.337Z,94.56
2023-03-06T01:33:47.404Z,94.56
2023-03-06T01:34:47.310Z,94.56
2023-03-06T01:35:47.356Z,94.34
2023-03-06T01:36:47.333Z,94.13
2023-03-06T01:37:47.312Z,94.13
2023-03-06T01:38:47.281Z,94.03
2023-03-06T01:39:47.302Z,94.13
2023-03-06T01:40:47.270Z,94.24
2023-03-06T01:41:50.447Z,94.13
2023-03-06T01:42:47.258Z,94.03
2023-03-06T01:43:47.242Z,94.03
2023-03-06T01:44:47.221Z,94.13
2023-03-06T01:45:47.291Z,94.24
2023-03-06T01:46:47.265Z,94.13
2023-03-06T01:47:47.249Z,94.13
2023-03-06T01:48:47.211Z,94.24
2023-03-06T01:49:47.207Z,94.34
2023-03-06T01:50:47.195Z,94.34
2023-03-06T01:51:47.183Z,94.45
2023-03-06T01:52:47.196Z,94.49
2023-03-06T01:53:47.210Z,94.49
2023-03-06T01:54:47.133Z,94.60
2023-03-06T01:55:47.160Z,94.70
2023-03-06T01:56:50.205Z,94.81
2023-03-06T01:57:47.212Z,94.81
2023-03-06T01:58:47.121Z,95.01
2023-03-06T01:59:47.117Z,95.12
2023-03-06T02:00:47.193Z,95.12
2023-03-06T02:01:47.123Z,95.01
2023-03-06T02:02:47.079Z,94.91
2023-03-06T02:03:47.273Z,94.70
2023-03-06T02:04:47.065Z,94.60
2023-03-06T02:05:47.061Z,94.49
2023-03-06T02:06:47.080Z,94.32
2023-03-06T02:07:47.072Z,94.18
2023-03-06T02:08:47.081Z,94.12
2023-03-06T02:09:47.091Z,94.12
2023-03-06T02:10:47.009Z,93.97
2023-03-06T02:11:50.108Z,94.01
2023-03-06T02:12:47.044Z,94.22
2023-03-06T02:13:46.970Z,94.43
2023-03-06T02:14:46.999Z,94.43
2023-03-06T02:15:46.961Z,94.43
2023-03-06T02:16:47.043Z,94.54
2023-03-06T02:17:47.010Z,94.54
2023-03-06T02:18:46.954Z,94.32
2023-03-06T02:19:46.968Z,94.22
2023-03-06T02:20:46.992Z,94.01
2023-03-06T02:21:46.909Z,93.91
2023-03-06T02:22:46.963Z,93.80
2023-03-06T02:23:46.884Z,93.80
2023-03-06T02:24:46.835Z,93.91
2023-03-06T02:25:46.912Z,94.01
2023-03-06T02:26:49.882Z,93.91
2023-03-06T02:27:46.867Z,93.91
2023-03-06T02:28:47.087Z,94.16
2023-03-06T02:29:46.821Z,94.37
2023-03-06T02:30:46.838Z,94.47
2023-03-06T02:31:46.790Z,94.47
2023-03-06T02:32:46.895Z,94.58
2023-03-06T02:33:46.798Z,94.68
2023-03-06T02:34:46.776Z,94.79
2023-03-06T02:35:47.038Z,94.89
2023-03-06T02:36:46.766Z,95.10
2023-03-06T02:37:46.714Z,95.31
2023-03-06T02:38:46.712Z,95.25
2023-03-06T02:39:46.746Z,95.25
2023-03-06T02:40:46.833Z,95.25
2023-03-06T02:41:49.721Z,95.25
2023-03-06T02:42:46.707Z,95.15
2023-03-06T02:43:46.673Z,95.15
2023-03-06T02:44:46.757Z,95.15
2023-03-06T02:45:46.736Z,95.25
2023-03-06T02:46:46.744Z,95.25
2023-03-06T02:47:46.694Z,95.46
2023-03-06T02:48:46.663Z,95.46
2023-03-06T02:49:46.606Z,95.46
2023-03-06T02:50:46.653Z,95.46
2023-03-06T02:51:46.604Z,95.56
2023-03-06T02:52:46.653Z,95.56
2023-03-06T02:53:46.552Z,95.56
2023-03-06T02:54:46.545Z,95.82
2023-03-06T02:55:46.567Z,95.82
2023-03-06T02:56:49.542Z,95.82
2023-03-06T02:57:46.588Z,95.82
2023-03-06T02:58:46.515Z,95.92
2023-03-06T02:59:46.532Z,95.92
2023-03-06T03:00:46.522Z,95.92
2023-03-06T03:01:46.592Z,95.82
2023-03-06T03:02:46.462Z,95.92
2023-03-06T03:03:46.461Z,96.13
2023-03-06T03:04:46.468Z,96.34
2023-03-06T03:05:46.431Z,96.45
2023-03-06T03:06:46.433Z,96.55
2023-03-06T03:07:46.414Z,96.55
2023-03-06T03:08:46.404Z,96.34
2023-03-06T03:09:46.406Z,96.24
2023-03-06T03:10:46.393Z,96.03
2023-03-06T03:11:49.380Z,95.92
2023-03-06T03:12:46.455Z,96.03
2023-03-06T03:13:46.362Z,96.03
2023-03-06T03:14:46.365Z,96.07
2023-03-06T03:15:46.392Z,96.07
2023-03-06T03:16:46.329Z,96.18
2023-03-06T03:17:46.413Z,96.28
2023-03-06T03:18:46.343Z,96.39
2023-03-06T03:19:46.308Z,96.39
2023-03-06T03:20:46.291Z,96.39
2023-03-06T03:21:46.313Z,96.39
2023-03-06T03:22:46.296Z,96.49
2023-03-06T03:23:46.282Z,96.70
2023-03-06T03:24:46.462Z,96.70
2023-03-06T03:25:46.291Z,96.59
2023-03-06T03:26:49.265Z,96.34
2023-03-06T03:27:46.256Z,96.28
2023-03-06T03:28:46.251Z,96.28
2023-03-06T03:29:46.425Z,96.28
2023-03-06T03:30:46.301Z,96.28
2023-03-06T03:31:46.767Z,96.39
2023-03-06T03:32:46.246Z,96.55
2023-03-06T03:33:46.221Z,96.55
2023-03-06T03:34:46.148Z,96.66
2023-03-06T03:35:46.299Z,96.66
2023-03-06T03:36:46.165Z,96.55
2023-03-06T03:37:46.150Z,96.45
2023-03-06T03:38:46.135Z,96.24
2023-03-06T03:39:46.137Z,96.13
2023-03-06T03:40:46.111Z,96.03
2023-03-06T03:41:49.129Z,95.82
2023-03-06T03:42:46.161Z,95.72
2023-03-06T03:43:46.066Z,95.50
2023-03-06T03:44:46.052Z,95.40
2023-03-06T03:45:46.044Z,95.40
2023-03-06T03:46:46.102Z,95.54
2023-03-06T03:47:46.026Z,95.61
2023-03-06T03:48:46.037Z,95.76
2023-03-06T03:49:46.023Z,95.86
2023-03-06T03:50:46.038Z,95.82
2023-03-06T03:51:46.022Z,96.07
2023-03-06T03:52:45.997Z,96.03
2023-03-06T03:53:45.980Z,96.07
2023-03-06T03:54:45.982Z,95.97
2023-03-06T03:55:45.956Z,95.76
2023-03-06T03:56:49.033Z,95.76
2023-03-06T03:57:46.017Z,95.76
2023-03-06T03:58:45.944Z,95.86
2023-03-06T03:59:45.994Z,95.76
2023-03-06T04:00:46.103Z,95.97
2023-03-06T04:01:45.937Z,96.07
2023-03-06T04:02:45.891Z,96.18
2023-03-06T04:03:46.000Z,96.18
2023-03-06T04:04:45.893Z,96.18
2023-03-06T04:05:45.945Z,96.28
2023-03-06T04:06:45.876Z,96.39
2023-03-06T04:07:45.869Z,96.39
2023-03-06T04:08:45.881Z,96.49
2023-03-06T04:09:45.832Z,96.59
2023-03-06T04:10:45.800Z,96.70
2023-03-06T04:11:48.840Z,96.70
2023-03-06T04:12:45.823Z,96.81
2023-03-06T04:13:45.771Z,97.02
2023-03-06T04:14:45.779Z,97.02
2023-03-06T04:15:45.843Z,96.70
2023-03-06T04:16:45.814Z,96.59
2023-03-06T04:17:45.726Z,96.49
2023-03-06T04:18:45.873Z,96.49
2023-03-06T04:19:45.773Z,96.49
2023-03-06T04:20:45.763Z,96.59
2023-03-06T04:21:45.690Z,96.59
2023-03-06T04:22:45.683Z,96.59
2023-03-06T04:23:45.654Z,96.59
2023-03-06T04:24:45.647Z,96.59
2023-03-06T04:25:45.848Z,96.70
2023-03-06T04:26:48.657Z,96.81
2023-03-06T04:27:45.666Z,96.81
2023-03-06T04:28:45.735Z,96.91
2023-03-06T04:29:45.667Z,97.02
2023-03-06T04:30:45.607Z,96.91
2023-03-06T04:31:45.790Z,96.81
2023-03-06T04:32:45.661Z,96.59
2023-03-06T04:33:45.593Z,96.49
2023-03-06T04:34:45.605Z,96.49
2023-03-06T04:35:45.600Z,96.39
2023-03-06T04:36:45.587Z,96.28
2023-03-06T04:37:45.606Z,96.18
2023-03-06T04:38:45.545Z,96.07
2023-03-06T04:39:45.603Z,96.07
2023-03-06T04:40:45.910Z,95.97
2023-03-06T04:41:48.505Z,95.97
2023-03-06T04:42:45.557Z,96.07
2023-03-06T04:43:45.486Z,96.28
2023-03-06T04:44:45.452Z,96.28
2023-03-06T04:45:45.506Z,96.28
2023-03-06T04:46:45.463Z,96.28
2023-03-06T04:47:45.545Z,96.28
2023-03-06T04:48:45.489Z,96.28
2023-03-06T04:49:45.457Z,96.28
2023-03-06T04:50:45.418Z,96.39
2023-03-06T04:51:45.408Z,96.49
2023-03-06T04:52:45.368Z,96.59
2023-03-06T04:53:45.364Z,96.70
2023-03-06T04:54:45.350Z,96.70
2023-03-06T04:55:45.370Z,96.70
2023-03-06T04:56:48.372Z,96.70
2023-03-06T04:57:45.375Z,96.70
2023-03-06T04:58:45.314Z,96.91
2023-03-06T04:59:45.302Z,97.02
2023-03-06T05:00:45.335Z,97.12
2023-03-06T05:01:45.342Z,97.12
2023-03-06T05:02:45.312Z,97.02
2023-03-06T05:03:45.286Z,97.02
2023-03-06T05:04:45.254Z,97.12
2023-03-06T05:05:45.278Z,96.91
2023-03-06T05:06:45.263Z,96.91
2023-03-06T05:07:45.251Z,97.02
2023-03-06T05:08:45.225Z,97.02
2023-03-06T05:09:45.234Z,96.81
2023-03-06T05:10:45.195Z,96.81
2023-03-06T05:11:48.194Z,96.81
2023-03-06T05:12:45.254Z,96.91
2023-03-06T05:13:45.214Z,96.70
2023-03-06T05:14:47.657Z,96.70
2023-03-06T05:15:45.161Z,96.81
2023-03-06T05:16:45.347Z,96.81
2023-03-06T05:17:45.140Z,96.91
2023-03-06T05:18:45.138Z,97.02
2023-03-06T05:19:45.086Z,97.02
2023-03-06T05:20:45.099Z,97.12
2023-03-06T05:21:45.074Z,97.12
2023-03-06T05:22:45.124Z,97.12
2023-03-06T05:23:45.696Z,97.02
2023-03-06T05:24:45.075Z,96.91
2023-03-06T05:25:45.057Z,96.91
2023-03-06T05:26:48.026Z,96.91
2023-03-06T05:27:45.032Z,97.23
2023-03-06T05:28:44.997Z,97.23
2023-03-06T05:29:45.069Z,97.33
2023-03-06T05:30:44.994Z,97.54
2023-03-06T05:31:44.989Z,97.64
2023-03-06T05:32:45.341Z,97.75
2023-03-06T05:33:45.135Z,97.86
2023-03-06T05:34:45.020Z,98.07
2023-03-06T05:35:44.938Z,98.07
2023-03-06T05:36:45.017Z,98.07
2023-03-06T05:37:45.094Z,98.07
2023-03-06T05:38:45.010Z,98.17
2023-03-06T05:39:45.022Z,98.17
2023-03-06T05:40:44.939Z,98.07
2023-03-06T05:41:47.886Z,98.07
2023-03-06T05:42:44.893Z,97.96
2023-03-06T05:43:45.074Z,97.96
2023-03-06T05:44:44.872Z,97.96
2023-03-06T05:45:44.977Z,97.75
2023-03-06T05:46:44.917Z,97.75
2023-03-06T05:47:44.822Z,97.64
2023-03-06T05:48:46.836Z,97.64
2023-03-06T05:49:44.869Z,97.64
2023-03-06T05:50:44.753Z,97.54
2023-03-06T05:51:44.754Z,97.44
2023-03-06T05:52:44.747Z,97.39
2023-03-06T05:53:44.747Z,97.18
2023-03-06T05:54:45.162Z,97.08
2023-03-06T05:55:44.764Z,97.18
2023-03-06T05:56:47.680Z,97.18
2023-03-06T05:57:44.685Z,97.18
2023-03-06T05:58:44.659Z,97.29
2023-03-06T05:59:46.315Z,97.29
2023-03-06T06:00:44.672Z,97.50
2023-03-06T06:01:44.642Z,97.60
2023-03-06T06:02:44.679Z,97.50
2023-03-06T06:03:44.693Z,97.56
2023-03-06T06:04:44.627Z,97.60
2023-03-06T06:05:44.761Z,97.71
2023-03-06T06:06:44.658Z,97.81
2023-03-06T06:07:44.598Z,97.92
2023-03-06T06:08:44.569Z,98.02
2023-03-06T06:09:44.583Z,98.23
2023-03-06T06:10:44.608Z,98.23
2023-03-06T06:11:47.527Z,98.23
2023-03-06T06:12:44.564Z,98.13
2023-03-06T06:13:44.564Z,98.13
2023-03-06T06:14:44.605Z,98.13
2023-03-06T06:15:44.595Z,98.34
2023-03-06T06:16:44.714Z,98.34
2023-03-06T06:17:44.489Z,98.39
2023-03-06T06:18:44.543Z,98.23
2023-03-06T06:19:44.549Z,97.98
2023-03-06T06:20:44.575Z,97.98
2023-03-06T06:21:44.440Z,98.08
2023-03-06T06:22:44.632Z,98.08
2023-03-06T06:23:44.492Z,97.87
2023-03-06T06:24:44.452Z,97.77
2023-03-06T06:25:44.501Z,97.77
2023-03-06T06:26:47.368Z,97.77
2023-03-06T06:27:44.572Z,97.87
2023-03-06T06:28:44.439Z,97.77
2023-03-06T06:29:44.512Z,97.77
2023-03-06T06:30:44.563Z,97.83
2023-03-06T06:31:44.582Z,98.04
2023-03-06T06:32:44.463Z,98.04
2023-03-06T06:33:44.387Z,98.04
2023-03-06T06:34:44.362Z,98.14
2023-03-06T06:35:44.342Z,98.04
2023-03-06T06:36:44.291Z,98.25
2023-03-06T06:37:44.323Z,98.46
2023-03-06T06:38:44.275Z,98.25
2023-03-06T06:39:44.367Z,98.04
2023-03-06T06:40:49.313Z,98.04
2023-03-06T06:42:00.063Z,98.14
2023-03-06T06:42:45.255Z,98.21
2023-03-06T06:43:44.231Z,98.10
2023-03-06T06:44:44.186Z,97.99
2023-03-06T06:45:44.284Z,98.21
2023-03-06T06:47:21.935Z,98.31
2023-03-06T06:47:45.229Z,98.31
2023-03-06T06:48:44.136Z,98.31
2023-03-06T06:49:44.126Z,98.31
2023-03-06T06:50:44.127Z,98.21
2023-03-06T06:51:44.201Z,98.05
2023-03-06T06:52:44.129Z,98.16
2023-03-06T06:53:44.104Z,98.37
2023-03-06T06:54:44.109Z,98.68
2023-03-06T06:55:44.074Z,98.79
2023-03-06T06:56:47.328Z,98.79
2023-03-06T06:57:44.086Z,98.58
2023-03-06T06:58:44.268Z,98.37
2023-03-06T06:59:44.082Z,98.37
2023-03-06T07:00:44.019Z,98.58
2023-03-06T07:01:44.131Z,98.68
2023-03-06T07:02:44.007Z,98.58
2023-03-06T07:03:44.107Z,98.58
2023-03-06T07:05:00.434Z,98.54
2023-03-06T07:05:44.993Z,98.64
2023-03-06T07:06:43.988Z,98.64
2023-03-06T07:07:43.987Z,98.64
2023-03-06T07:08:43.970Z,98.64
2023-03-06T07:09:44.062Z,98.74
2023-03-06T07:10:43.998Z,98.85
2023-03-06T07:11:46.966Z,98.74
2023-03-06T07:12:43.916Z,98.64
2023-03-06T07:13:43.890Z,98.54
2023-03-06T07:14:43.904Z,98.43
2023-03-06T07:15:43.951Z,98.54
2023-03-06T07:16:43.849Z,98.43
2023-03-06T07:17:43.891Z,98.32
2023-03-06T07:18:43.858Z,98.22
2023-03-06T07:19:44.070Z,98.07
2023-03-06T07:20:43.817Z,98.07
2023-03-06T07:21:43.836Z,97.96
2023-03-06T07:22:50.697Z,98.07
2023-03-06T07:23:43.813Z,98.38
2023-03-06T07:24:43.788Z,98.69
2023-03-06T07:25:43.802Z,99.01
2023-03-06T07:26:46.782Z,99.22
2023-03-06T07:27:48.735Z,99.32
2023-03-06T07:28:52.287Z,99.28
2023-03-06T07:29:43.762Z,99.18
2023-03-06T07:30:43.744Z,99.07
2023-03-06T07:31:43.709Z,99.07
2023-03-06T07:32:43.743Z,98.97
2023-03-06T07:33:43.721Z,98.75
2023-03-06T07:34:43.702Z,98.55
2023-03-06T07:35:43.681Z,98.75
2023-03-06T07:36:43.872Z,99.07
2023-03-06T07:37:43.676Z,99.28
2023-03-06T07:38:43.701Z,99.24
2023-03-06T07:39:43.666Z,98.92
2023-03-06T07:40:43.648Z,98.71
2023-03-06T07:41:46.785Z,98.19
2023-03-06T07:42:43.645Z,97.88
2023-03-06T07:43:43.677Z,97.45
2023-03-06T07:44:43.585Z,97.35
2023-03-06T07:45:43.767Z,97.45
2023-03-06T07:46:43.663Z,97.35
2023-03-06T07:47:43.591Z,96.89
2023-03-06T07:48:43.580Z,96.58
2023-03-06T07:49:43.568Z,96.47
2023-03-06T07:50:43.562Z,96.37
2023-03-06T07:51:43.508Z,96.26
2023-03-06T07:52:43.653Z,96.16
2023-03-06T07:53:43.491Z,95.84
2023-03-06T07:54:43.508Z,95.74
2023-03-06T07:55:43.498Z,95.64
2023-03-06T07:56:46.461Z,95.59
2023-03-06T07:57:43.466Z,95.49
2023-03-06T07:58:43.449Z,95.28
2023-03-06T07:59:43.456Z,95.07
2023-03-06T08:00:43.436Z,94.76
2023-03-06T08:01:43.412Z,94.65
2023-03-06T08:02:47.240Z,94.76
2023-03-06T08:03:43.539Z,94.86
2023-03-06T08:04:43.420Z,94.92
2023-03-06T08:05:43.421Z,94.71
2023-03-06T08:06:43.377Z,93.57
2023-03-06T08:07:43.373Z,92.94
2023-03-06T08:08:43.488Z,92.41
2023-03-06T08:09:43.364Z,92.10
2023-03-06T08:10:43.342Z,91.69
2023-03-06T08:11:46.325Z,91.69
2023-03-06T08:12:43.336Z,91.75
2023-03-06T08:13:43.297Z,91.22
2023-03-06T08:14:43.343Z,91.02
2023-03-06T08:15:43.311Z,90.81
2023-03-06T08:16:43.401Z,90.70
2023-03-06T08:17:43.452Z,90.91
2023-03-06T08:18:45.826Z,91.33
2023-03-06T08:19:43.272Z,90.28
2023-03-06T08:20:43.234Z,90.39
2023-03-06T08:21:43.250Z,90.03
2023-03-06T08:22:43.228Z,90.25
2023-03-06T08:23:43.230Z,90.35
2023-03-06T08:24:43.385Z,89.83
2023-03-06T08:25:43.168Z,89.51
2023-03-06T08:26:46.174Z,89.62
2023-03-06T08:27:43.159Z,90.35
2023-03-06T08:28:43.137Z,90.45
2023-03-06T08:29:43.168Z,90.31
2023-03-06T08:30:43.162Z,90.62
2023-03-06T08:31:43.165Z,90.31
2023-03-06T08:32:43.188Z,90.62
2023-03-06T08:33:43.118Z,90.00
2023-03-06T08:34:43.143Z,89.47
2023-03-06T08:35:43.111Z,88.75
2023-03-06T08:36:43.069Z,88.85
2023-03-06T08:37:43.142Z,88.75
2023-03-06T08:38:43.073Z,88.53
2023-03-06T08:39:43.039Z,87.70
2023-03-06T08:40:43.047Z,87.70
2023-03-06T08:41:46.040Z,88.12
2023-03-06T08:42:43.062Z,88.22
2023-03-06T08:43:43.001Z,87.97
2023-03-06T08:44:43.097Z,88.01
2023-03-06T08:45:43.057Z,87.66
2023-03-06T08:46:42.994Z,87.55
2023-03-06T08:47:42.951Z,86.83
2023-03-06T08:48:42.942Z,87.04
2023-03-06T08:49:42.973Z,86.83
2023-03-06T08:50:42.972Z,86.93
2023-03-06T08:51:42.938Z,87.04
2023-03-06T08:52:42.974Z,87.14
2023-03-06T08:53:44.187Z,87.35
2023-03-06T08:54:42.923Z,87.14
2023-03-06T08:55:42.870Z,87.14
2023-03-06T08:56:45.892Z,86.93
2023-03-06T08:57:42.905Z,86.93
2023-03-06T08:58:42.841Z,87.14
2023-03-06T08:59:42.877Z,86.51
2023-03-06T09:00:42.849Z,86.27
2023-03-06T09:01:42.892Z,86.47
2023-03-06T09:02:42.902Z,86.89
2023-03-06T09:03:42.984Z,87.30
2023-03-06T09:04:42.817Z,87.30
2023-03-06T09:05:42.778Z,87.62
2023-03-06T09:06:42.796Z,87.68
2023-03-06T09:07:42.776Z,86.54
2023-03-06T09:08:42.780Z,85.08
2023-03-06T09:09:42.761Z,84.98
2023-03-06T09:10:42.754Z,84.14
2023-03-06T09:11:45.753Z,83.52
2023-03-06T09:12:53.149Z,84.14
2023-03-06T09:13:43.669Z,85.08
2023-03-06T09:14:42.723Z,85.67
2023-03-06T09:15:42.741Z,85.88
2023-03-06T09:16:42.701Z,85.98
2023-03-06T09:17:42.683Z,85.98
2023-03-06T09:18:42.676Z,85.88
2023-03-06T09:19:42.634Z,85.67
2023-03-06T09:20:42.726Z,85.56
2023-03-06T09:21:42.698Z,85.63
2023-03-06T09:22:44.014Z,85.73
2023-03-06T09:23:42.671Z,85.52
2023-03-06T09:24:42.586Z,84.69
2023-03-06T09:25:42.610Z,84.90
2023-03-06T09:26:47.194Z,84.48
2023-03-06T09:27:42.637Z,84.27
2023-03-06T09:28:43.585Z,83.86
2023-03-06T09:29:42.568Z,82.20
2023-03-06T09:30:42.594Z,81.84
2023-03-06T09:31:42.523Z,82.15
2023-03-06T09:32:42.563Z,81.63
2023-03-06T09:33:42.500Z,80.49
2023-03-06T09:34:42.480Z,80.80
2023-03-06T09:35:42.500Z,80.39
2023-03-06T09:36:55.344Z,79.03
2023-03-06T09:37:42.564Z,79.55
2023-03-06T09:39:42.441Z,79.83
2023-03-06T09:40:42.445Z,80.15
2023-03-06T09:41:45.422Z,80.46
2023-03-06T09:42:42.654Z,80.21
2023-03-06T09:43:42.400Z,80.42
2023-03-06T09:44:42.446Z,80.52
2023-03-06T09:45:42.462Z,80.83
2023-03-06T09:46:42.365Z,79.90
2023-03-06T09:47:42.381Z,79.97
2023-03-06T09:48:42.462Z,80.38
2023-03-06T09:49:42.365Z,79.76
2023-03-06T09:50:42.370Z,77.78
2023-03-06T09:51:42.353Z,79.03
2023-03-06T09:52:42.312Z,79.41
2023-03-06T09:53:42.290Z,79.51
2023-03-06T09:54:42.313Z,79.61
2023-03-06T09:55:42.427Z,78.06
2023-03-06T09:56:45.258Z,77.95
2023-03-06T09:57:42.289Z,78.27
2023-03-06T09:58:42.281Z,78.78
2023-03-06T09:59:42.220Z,78.89
2023-03-06T10:00:42.259Z,77.95
2023-03-06T10:01:42.223Z,78.68
2023-03-06T10:02:42.289Z,78.44
2023-03-06T10:03:42.177Z,78.23
2023-03-06T10:04:42.275Z,78.44
2023-03-06T10:05:42.160Z,78.03
2023-03-06T10:06:42.201Z,76.92
2023-03-06T10:07:42.175Z,76.99
2023-03-06T10:08:42.156Z,77.09
2023-03-06T10:09:42.131Z,77.40
2023-03-06T10:10:42.109Z,77.82
2023-03-06T10:11:45.130Z,78.13
2023-03-06T10:12:42.111Z,77.51
2023-03-06T10:13:42.082Z,77.51
2023-03-06T10:14:42.170Z,77.47
2023-03-06T10:15:42.138Z,77.89
2023-03-06T10:16:42.051Z,77.37
2023-03-06T10:17:42.035Z,77.16
2023-03-06T10:18:42.024Z,77.12
2023-03-06T10:19:42.054Z,76.29
2023-03-06T10:20:42.036Z,75.67
2023-03-06T10:21:42.031Z,75.88
2023-03-06T10:22:42.002Z,74.60
2023-03-06T10:23:43.009Z,75.02
2023-03-06T10:24:42.158Z,74.71
2023-03-06T10:25:41.977Z,74.88
2023-03-06T10:26:45.186Z,74.46
2023-03-06T10:27:41.982Z,72.29
2023-03-06T10:28:41.927Z,71.98
2023-03-06T10:29:43.659Z,71.98
2023-03-06T10:30:42.996Z,71.88
2023-03-06T10:31:41.910Z,71.04
2023-03-06T10:32:48.670Z,71.56
2023-03-06T10:33:41.880Z,70.32
2023-03-06T10:35:41.935Z,69.80
2023-03-06T10:36:41.840Z,70.53
2023-03-06T10:37:41.976Z,71.53
2023-03-06T10:38:41.839Z,70.29
2023-03-06T10:39:41.809Z,70.39
2023-03-06T10:40:41.851Z,69.56
2023-03-06T10:41:45.985Z,68.87
2023-03-06T10:42:41.834Z,69.08
2023-03-06T10:43:41.801Z,69.18
2023-03-06T10:44:41.751Z,69.39
2023-03-06T10:45:48.959Z,69.94
2023-03-06T10:46:41.840Z,69.63
2023-03-06T10:47:41.720Z,70.04
2023-03-06T10:48:42.324Z,69.80
2023-03-06T10:49:41.713Z,71.04
2023-03-06T10:50:41.712Z,70.70
2023-03-06T10:51:41.751Z,70.50
2023-03-06T10:52:41.707Z,70.70
2023-03-06T10:53:41.685Z,69.95
2023-03-06T10:54:41.690Z,69.53
2023-03-06T10:55:41.712Z,68.40
2023-03-06T10:56:44.995Z,68.29
2023-03-06T10:57:41.635Z,68.12
2023-03-06T10:58:41.621Z,69.46
2023-03-06T10:59:41.613Z,70.08
2023-03-06T11:00:41.599Z,69.46
2023-03-06T11:01:41.694Z,69.29
2023-03-06T11:02:41.566Z,68.35
2023-03-06T11:03:41.585Z,69.49
2023-03-06T11:04:41.602Z,69.80
2023-03-06T11:05:41.564Z,69.70
2023-03-06T11:06:41.562Z,70.18
2023-03-06T11:07:41.619Z,69.35
2023-03-06T11:08:41.512Z,69.25
2023-03-06T11:09:41.638Z,68.84
2023-03-06T11:10:41.514Z,68.74
2023-03-06T11:11:44.475Z,68.12
2023-03-06T11:12:41.480Z,67.77
2023-03-06T11:13:41.460Z,68.60
2023-03-06T11:14:41.496Z,67.60
2023-03-06T11:15:41.609Z,68.32
2023-03-06T11:16:41.476Z,68.74
2023-03-06T11:17:41.415Z,68.94
2023-03-06T11:18:41.457Z,69.15
2023-03-06T11:19:41.388Z,69.35
2023-03-06T11:20:50.912Z,68.74
2023-03-06T11:21:41.403Z,69.43
2023-03-06T11:22:41.420Z,69.12
2023-03-06T11:23:41.368Z,68.80
2023-03-06T11:24:41.359Z,68.60
2023-03-06T11:25:41.339Z,68.29
2023-03-06T11:26:44.344Z,69.01
2023-03-06T11:27:41.347Z,68.74
2023-03-06T11:28:41.479Z,68.12
2023-03-06T11:29:41.355Z,68.84
2023-03-06T11:30:41.277Z,69.15
2023-03-06T11:31:41.304Z,69.67
2023-03-06T11:32:41.350Z,69.35
2023-03-06T11:33:41.535Z,69.98
2023-03-06T11:34:41.282Z,68.84
2023-03-06T11:35:41.298Z,68.94
2023-03-06T11:36:41.214Z,69.15
2023-03-06T11:37:41.289Z,68.53
2023-03-06T11:38:41.517Z,68.63
2023-03-06T11:39:41.205Z,68.94
2023-03-06T11:40:41.169Z,69.53
2023-03-06T11:41:44.159Z,69.53
2023-03-06T11:42:41.172Z,69.01
2023-03-06T11:43:41.152Z,69.12
2023-03-06T11:44:42.166Z,69.01
2023-03-06T11:45:41.235Z,68.60
2023-03-06T11:46:41.195Z,68.91
2023-03-06T11:47:41.095Z,69.01
2023-03-06T11:48:41.344Z,68.40
2023-03-06T11:49:41.079Z,68.49
2023-03-06T11:50:41.076Z,69.32
2023-03-06T11:51:41.082Z,68.84
2023-03-06T11:52:41.093Z,68.53
2023-03-06T11:53:41.128Z,68.22
2023-03-06T11:54:41.053Z,67.70
2023-03-06T11:55:41.034Z,67.80
2023-03-06T11:56:44.990Z,67.60
2023-03-06T11:57:41.065Z,68.63
2023-03-06T11:58:40.984Z,68.70
2023-03-06T11:59:41.139Z,67.98
2023-03-06T12:00:41.002Z,67.25
2023-03-06T12:01:41.006Z,67.25
2023-03-06T12:02:40.944Z,67.36
2023-03-06T12:03:40.933Z,67.43
2023-03-06T12:04:40.949Z,68.36
2023-03-06T12:05:41.179Z,67.74
2023-03-06T12:06:40.924Z,66.19
2023-03-06T12:07:40.949Z,66.19
2023-03-06T12:08:40.927Z,66.50
2023-03-06T12:09:40.925Z,66.50
2023-03-06T12:10:40.897Z,65.88
2023-03-06T12:11:44.892Z,66.39
2023-03-06T12:12:40.860Z,66.81
2023-03-06T12:13:41.783Z,67.22
2023-03-06T12:14:40.826Z,67.09
2023-03-06T12:15:40.945Z,66.50
2023-03-06T12:16:40.898Z,66.29
2023-03-06T12:17:40.844Z,66.39
2023-03-06T12:18:40.812Z,66.50
2023-03-06T12:19:40.812Z,67.22
2023-03-06T12:20:40.785Z,66.81
2023-03-06T12:21:40.788Z,66.29
2023-03-06T12:22:40.762Z,66.60
2023-03-06T12:23:41.727Z,67.61
2023-03-06T12:24:40.749Z,67.91
2023-03-06T12:25:40.708Z,66.57
2023-03-06T12:26:43.762Z,66.26
2023-03-06T12:27:40.717Z,66.67
2023-03-06T12:28:40.704Z,66.88
2023-03-06T12:29:40.673Z,66.67
2023-03-06T12:30:40.788Z,66.99
2023-03-06T12:31:40.780Z,66.78
2023-03-06T12:32:40.701Z,66.99
2023-03-06T12:33:40.665Z,67.50
2023-03-06T12:34:40.654Z,67.40
2023-03-06T12:35:40.663Z,67.40
2023-03-06T12:36:40.696Z,67.19
2023-03-06T12:37:40.614Z,67.02
2023-03-06T12:38:40.597Z,67.43
2023-03-06T12:39:40.599Z,67.54
2023-03-06T12:40:40.608Z,68.23
2023-03-06T12:41:44.050Z,68.23
2023-03-06T12:42:40.568Z,68.33
2023-03-06T12:43:40.594Z,68.54
2023-03-06T12:44:40.508Z,68.85
2023-03-06T12:45:40.579Z,67.61
2023-03-06T12:46:40.491Z,67.40
2023-03-06T12:47:40.478Z,67.61
2023-03-06T12:48:40.506Z,67.30
2023-03-06T12:49:41.460Z,68.02
2023-03-06T12:50:40.635Z,68.12
2023-03-06T12:51:40.477Z,68.12
2023-03-06T12:52:40.590Z,67.50
2023-03-06T12:53:40.445Z,67.61
2023-03-06T12:54:40.416Z,67.61